sensor_id;sensor_type;location;lat;lon;timestamp;P1;durP1;ratioP1;P2;durP2;ratioP2
40591;SDS011;26301;42.832;23.918;2023-04-24T00:00:59;9.10;;;7.28;;
40591;SDS011;26301;42.832;23.918;2023-04-24T00:03:26;9.35;;;7.20;;
40591;SDS011;26301;42.832;23.918;2023-04-24T00:05:54;10.05;;;6.75;;
40591;SDS011;26301;42.832;23.918;2023-04-24T00:08:20;11.65;;;7.03;;
40591;SDS011;26301;42.832;23.918;2023-04-24T00:10:47;10.07;;;7.28;;
40591;SDS011;26301;42.832;23.918;2023-04-24T00:13:13;10.50;;;7.53;;
40591;SDS011;26301;42.832;23.918;2023-04-24T00:15:40;11.60;;;7.68;;
40591;SDS011;26301;42.832;23.918;2023-04-24T00:18:06;17.40;;;11.55;;
40591;SDS011;26301;42.832;23.918;2023-04-24T00:20:32;15.30;;;10.15;;
40591;SDS011;26301;42.832;23.918;2023-04-24T00:23:00;12.50;;;8.10;;
40591;SDS011;26301;42.832;23.918;2023-04-24T00:25:28;13.10;;;7.70;;
40591;SDS011;26301;42.832;23.918;2023-04-24T00:27:54;9.20;;;8.02;;
40591;SDS011;26301;42.832;23.918;2023-04-24T00:30:20;11.15;;;7.50;;
40591;SDS011;26301;42.832;23.918;2023-04-24T00:32:46;8.57;;;7.00;;
40591;SDS011;26301;42.832;23.918;2023-04-24T00:35:12;12.43;;;6.68;;
40591;SDS011;26301;42.832;23.918;2023-04-24T00:37:38;12.43;;;7.38;;
40591;SDS011;26301;42.832;23.918;2023-04-24T00:40:04;12.52;;;7.65;;
40591;SDS011;26301;42.832;23.918;2023-04-24T00:42:32;9.63;;;7.45;;
40591;SDS011;26301;42.832;23.918;2023-04-24T00:44:59;8.13;;;7.32;;
40591;SDS011;26301;42.832;23.918;2023-04-24T00:47:28;9.48;;;7.03;;
40591;SDS011;26301;42.832;23.918;2023-04-24T00:49:55;10.27;;;6.78;;
40591;SDS011;26301;42.832;23.918;2023-04-24T00:52:21;10.30;;;6.25;;
40591;SDS011;26301;42.832;23.918;2023-04-24T00:54:49;10.00;;;7.10;;
40591;SDS011;26301;42.832;23.918;2023-04-24T00:57:15;10.00;;;7.22;;
40591;SDS011;26301;42.832;23.918;2023-04-24T00:59:42;10.23;;;7.07;;
40591;SDS011;26301;42.832;23.918;2023-04-24T01:02:09;7.72;;;6.93;;
40591;SDS011;26301;42.832;23.918;2023-04-24T01:04:37;9.27;;;7.43;;
40591;SDS011;26301;42.832;23.918;2023-04-24T01:07:04;9.15;;;7.25;;
40591;SDS011;26301;42.832;23.918;2023-04-24T01:09:35;13.82;;;6.85;;
40591;SDS011;26301;42.832;23.918;2023-04-24T01:12:08;10.68;;;7.65;;
40591;SDS011;26301;42.832;23.918;2023-04-24T01:14:34;8.13;;;7.07;;
40591;SDS011;26301;42.832;23.918;2023-04-24T01:17:01;11.02;;;6.80;;
40591;SDS011;26301;42.832;23.918;2023-04-24T01:19:27;9.27;;;7.32;;
40591;SDS011;26301;42.832;23.918;2023-04-24T01:21:54;11.38;;;7.60;;
40591;SDS011;26301;42.832;23.918;2023-04-24T01:24:24;10.95;;;7.68;;
40591;SDS011;26301;42.832;23.918;2023-04-24T01:26:50;10.18;;;7.43;;
40591;SDS011;26301;42.832;23.918;2023-04-24T01:29:16;10.75;;;7.38;;
40591;SDS011;26301;42.832;23.918;2023-04-24T01:31:42;10.68;;;7.00;;
40591;SDS011;26301;42.832;23.918;2023-04-24T01:34:09;9.68;;;7.03;;
40591;SDS011;26301;42.832;23.918;2023-04-24T01:36:36;9.65;;;6.95;;
40591;SDS011;26301;42.832;23.918;2023-04-24T01:39:03;8.68;;;6.88;;
40591;SDS011;26301;42.832;23.918;2023-04-24T01:41:29;9.57;;;7.57;;
40591;SDS011;26301;42.832;23.918;2023-04-24T01:43:56;13.40;;;8.10;;
40591;SDS011;26301;42.832;23.918;2023-04-24T01:46:23;9.93;;;8.00;;
40591;SDS011;26301;42.832;23.918;2023-04-24T01:48:50;9.30;;;7.57;;
40591;SDS011;26301;42.832;23.918;2023-04-24T01:51:18;11.43;;;8.30;;
40591;SDS011;26301;42.832;23.918;2023-04-24T01:53:44;9.15;;;7.68;;
40591;SDS011;26301;42.832;23.918;2023-04-24T01:56:11;9.50;;;8.00;;
40591;SDS011;26301;42.832;23.918;2023-04-24T01:58:37;10.68;;;7.38;;
40591;SDS011;26301;42.832;23.918;2023-04-24T02:01:03;9.20;;;7.82;;
40591;SDS011;26301;42.832;23.918;2023-04-24T02:03:30;8.32;;;7.07;;
40591;SDS011;26301;42.832;23.918;2023-04-24T02:05:56;11.80;;;7.63;;
40591;SDS011;26301;42.832;23.918;2023-04-24T02:08:22;9.35;;;8.18;;
40591;SDS011;26301;42.832;23.918;2023-04-24T02:10:49;12.48;;;9.05;;
40591;SDS011;26301;42.832;23.918;2023-04-24T02:13:15;10.43;;;7.85;;
40591;SDS011;26301;42.832;23.918;2023-04-24T02:15:42;10.90;;;8.68;;
40591;SDS011;26301;42.832;23.918;2023-04-24T02:18:07;9.95;;;8.25;;
40591;SDS011;26301;42.832;23.918;2023-04-24T02:20:34;10.65;;;9.00;;
40591;SDS011;26301;42.832;23.918;2023-04-24T02:23:01;12.13;;;8.93;;
40591;SDS011;26301;42.832;23.918;2023-04-24T02:25:28;11.23;;;8.32;;
40591;SDS011;26301;42.832;23.918;2023-04-24T02:27:54;15.05;;;8.80;;
40591;SDS011;26301;42.832;23.918;2023-04-24T02:30:20;14.50;;;8.60;;
40591;SDS011;26301;42.832;23.918;2023-04-24T02:32:46;9.10;;;8.02;;
40591;SDS011;26301;42.832;23.918;2023-04-24T02:35:14;8.73;;;7.82;;
40591;SDS011;26301;42.832;23.918;2023-04-24T02:37:40;9.25;;;8.05;;
40591;SDS011;26301;42.832;23.918;2023-04-24T02:40:07;12.32;;;8.40;;
40591;SDS011;26301;42.832;23.918;2023-04-24T02:42:33;10.55;;;7.88;;
40591;SDS011;26301;42.832;23.918;2023-04-24T02:45:00;11.57;;;7.45;;
40591;SDS011;26301;42.832;23.918;2023-04-24T02:47:26;8.35;;;7.30;;
40591;SDS011;26301;42.832;23.918;2023-04-24T02:49:52;11.65;;;8.05;;
40591;SDS011;26301;42.832;23.918;2023-04-24T02:52:19;9.38;;;7.28;;
40591;SDS011;26301;42.832;23.918;2023-04-24T02:54:45;9.77;;;7.78;;
40591;SDS011;26301;42.832;23.918;2023-04-24T02:57:11;10.73;;;7.90;;
40591;SDS011;26301;42.832;23.918;2023-04-24T02:59:38;10.35;;;7.72;;
40591;SDS011;26301;42.832;23.918;2023-04-24T03:02:06;10.50;;;7.53;;
40591;SDS011;26301;42.832;23.918;2023-04-24T03:04:36;11.18;;;8.00;;
40591;SDS011;26301;42.832;23.918;2023-04-24T03:07:04;8.70;;;7.75;;
40591;SDS011;26301;42.832;23.918;2023-04-24T03:09:31;10.20;;;8.20;;
40591;SDS011;26301;42.832;23.918;2023-04-24T03:11:57;11.00;;;7.97;;
40591;SDS011;26301;42.832;23.918;2023-04-24T03:14:23;11.13;;;7.30;;
40591;SDS011;26301;42.832;23.918;2023-04-24T03:16:50;12.95;;;8.23;;
40591;SDS011;26301;42.832;23.918;2023-04-24T03:19:17;12.20;;;7.22;;
40591;SDS011;26301;42.832;23.918;2023-04-24T03:21:43;8.02;;;7.20;;
40591;SDS011;26301;42.832;23.918;2023-04-24T03:24:09;8.50;;;7.57;;
40591;SDS011;26301;42.832;23.918;2023-04-24T03:26:35;12.48;;;8.23;;
40591;SDS011;26301;42.832;23.918;2023-04-24T03:29:02;8.38;;;7.40;;
40591;SDS011;26301;42.832;23.918;2023-04-24T03:31:28;11.77;;;8.18;;
40591;SDS011;26301;42.832;23.918;2023-04-24T03:33:55;9.82;;;8.40;;
40591;SDS011;26301;42.832;23.918;2023-04-24T03:36:21;18.42;;;9.38;;
40591;SDS011;26301;42.832;23.918;2023-04-24T03:38:47;12.10;;;9.32;;
40591;SDS011;26301;42.832;23.918;2023-04-24T03:41:14;12.45;;;10.10;;
40591;SDS011;26301;42.832;23.918;2023-04-24T03:43:41;10.60;;;9.50;;
40591;SDS011;26301;42.832;23.918;2023-04-24T03:46:07;14.50;;;9.38;;
40591;SDS011;26301;42.832;23.918;2023-04-24T03:48:35;10.95;;;9.18;;
40591;SDS011;26301;42.832;23.918;2023-04-24T03:51:01;12.68;;;9.00;;
40591;SDS011;26301;42.832;23.918;2023-04-24T03:53:28;13.70;;;9.40;;
40591;SDS011;26301;42.832;23.918;2023-04-24T03:55:53;11.25;;;8.25;;
40591;SDS011;26301;42.832;23.918;2023-04-24T03:58:20;11.93;;;8.95;;
40591;SDS011;26301;42.832;23.918;2023-04-24T04:00:46;13.15;;;10.18;;
40591;SDS011;26301;42.832;23.918;2023-04-24T04:03:14;13.10;;;9.95;;
40591;SDS011;26301;42.832;23.918;2023-04-24T04:05:41;11.98;;;10.07;;
40591;SDS011;26301;42.832;23.918;2023-04-24T04:08:07;11.35;;;8.77;;
40591;SDS011;26301;42.832;23.918;2023-04-24T04:10:33;15.32;;;8.80;;
40591;SDS011;26301;42.832;23.918;2023-04-24T04:12:59;12.43;;;9.35;;
40591;SDS011;26301;42.832;23.918;2023-04-24T04:15:26;12.23;;;10.05;;
40591;SDS011;26301;42.832;23.918;2023-04-24T04:17:52;12.38;;;11.07;;
40591;SDS011;26301;42.832;23.918;2023-04-24T04:20:18;11.32;;;10.00;;
40591;SDS011;26301;42.832;23.918;2023-04-24T04:22:44;14.65;;;10.55;;
40591;SDS011;26301;42.832;23.918;2023-04-24T04:25:11;12.25;;;10.98;;
40591;SDS011;26301;42.832;23.918;2023-04-24T04:27:38;11.73;;;10.63;;
40591;SDS011;26301;42.832;23.918;2023-04-24T04:30:06;14.55;;;11.52;;
40591;SDS011;26301;42.832;23.918;2023-04-24T04:32:34;14.10;;;11.57;;
40591;SDS011;26301;42.832;23.918;2023-04-24T04:35:01;12.50;;;11.20;;
40591;SDS011;26301;42.832;23.918;2023-04-24T04:37:31;12.90;;;11.00;;
40591;SDS011;26301;42.832;23.918;2023-04-24T04:40:01;15.65;;;12.02;;
40591;SDS011;26301;42.832;23.918;2023-04-24T04:42:32;13.35;;;10.60;;
40591;SDS011;26301;42.832;23.918;2023-04-24T04:45:05;12.80;;;10.20;;
40591;SDS011;26301;42.832;23.918;2023-04-24T04:47:33;13.27;;;10.20;;
40591;SDS011;26301;42.832;23.918;2023-04-24T04:50:00;11.65;;;9.52;;
40591;SDS011;26301;42.832;23.918;2023-04-24T04:52:28;10.40;;;9.40;;
40591;SDS011;26301;42.832;23.918;2023-04-24T04:54:55;11.93;;;8.27;;
40591;SDS011;26301;42.832;23.918;2023-04-24T04:57:21;10.00;;;8.48;;
40591;SDS011;26301;42.832;23.918;2023-04-24T04:59:48;9.73;;;8.48;;
40591;SDS011;26301;42.832;23.918;2023-04-24T05:02:14;9.18;;;7.85;;
40591;SDS011;26301;42.832;23.918;2023-04-24T05:04:41;10.98;;;8.30;;
40591;SDS011;26301;42.832;23.918;2023-04-24T05:07:07;11.40;;;8.93;;
40591;SDS011;26301;42.832;23.918;2023-04-24T05:09:33;13.50;;;8.70;;
40591;SDS011;26301;42.832;23.918;2023-04-24T05:11:59;10.82;;;8.52;;
40591;SDS011;26301;42.832;23.918;2023-04-24T05:14:27;10.38;;;8.75;;
40591;SDS011;26301;42.832;23.918;2023-04-24T05:16:55;11.35;;;8.43;;
40591;SDS011;26301;42.832;23.918;2023-04-24T05:19:23;9.88;;;7.85;;
40591;SDS011;26301;42.832;23.918;2023-04-24T05:21:49;9.65;;;8.68;;
40591;SDS011;26301;42.832;23.918;2023-04-24T05:24:15;11.73;;;8.48;;
40591;SDS011;26301;42.832;23.918;2023-04-24T05:26:41;15.55;;;8.80;;
40591;SDS011;26301;42.832;23.918;2023-04-24T05:29:07;9.88;;;8.10;;
40591;SDS011;26301;42.832;23.918;2023-04-24T05:31:34;10.57;;;8.65;;
40591;SDS011;26301;42.832;23.918;2023-04-24T05:34:00;10.48;;;8.50;;
40591;SDS011;26301;42.832;23.918;2023-04-24T05:36:26;8.88;;;7.70;;
40591;SDS011;26301;42.832;23.918;2023-04-24T05:38:53;13.02;;;8.63;;
40591;SDS011;26301;42.832;23.918;2023-04-24T05:41:20;12.68;;;8.70;;
40591;SDS011;26301;42.832;23.918;2023-04-24T05:43:49;9.23;;;7.95;;
40591;SDS011;26301;42.832;23.918;2023-04-24T05:46:16;16.23;;;9.13;;
40591;SDS011;26301;42.832;23.918;2023-04-24T05:48:44;11.80;;;8.77;;
40591;SDS011;26301;42.832;23.918;2023-04-24T05:51:11;11.38;;;8.27;;
40591;SDS011;26301;42.832;23.918;2023-04-24T05:53:38;13.82;;;11.27;;
40591;SDS011;26301;42.832;23.918;2023-04-24T05:56:03;11.60;;;7.38;;
40591;SDS011;26301;42.832;23.918;2023-04-24T05:58:30;18.42;;;8.00;;
40591;SDS011;26301;42.832;23.918;2023-04-24T06:00:56;8.98;;;7.28;;
40591;SDS011;26301;42.832;23.918;2023-04-24T06:03:24;10.57;;;6.22;;
40591;SDS011;26301;42.832;23.918;2023-04-24T06:05:50;7.93;;;5.55;;
40591;SDS011;26301;42.832;23.918;2023-04-24T06:08:16;6.90;;;5.65;;
40591;SDS011;26301;42.832;23.918;2023-04-24T06:10:43;9.55;;;6.25;;
40591;SDS011;26301;42.832;23.918;2023-04-24T06:13:10;12.23;;;6.18;;
40591;SDS011;26301;42.832;23.918;2023-04-24T06:15:37;6.03;;;5.28;;
40591;SDS011;26301;42.832;23.918;2023-04-24T06:18:03;8.60;;;5.55;;
40591;SDS011;26301;42.832;23.918;2023-04-24T06:20:29;5.53;;;4.03;;
40591;SDS011;26301;42.832;23.918;2023-04-24T06:22:56;5.43;;;4.47;;
40591;SDS011;26301;42.832;23.918;2023-04-24T06:25:24;8.98;;;4.43;;
40591;SDS011;26301;42.832;23.918;2023-04-24T06:27:51;6.13;;;4.20;;
40591;SDS011;26301;42.832;23.918;2023-04-24T06:30:18;9.80;;;7.05;;
40591;SDS011;26301;42.832;23.918;2023-04-24T06:32:44;5.80;;;4.13;;
40591;SDS011;26301;42.832;23.918;2023-04-24T06:35:11;6.72;;;4.00;;
40591;SDS011;26301;42.832;23.918;2023-04-24T06:37:38;6.32;;;3.50;;
40591;SDS011;26301;42.832;23.918;2023-04-24T06:40:07;7.70;;;4.72;;
40591;SDS011;26301;42.832;23.918;2023-04-24T06:42:34;5.78;;;3.38;;
40591;SDS011;26301;42.832;23.918;2023-04-24T06:45:00;6.70;;;3.40;;
40591;SDS011;26301;42.832;23.918;2023-04-24T06:47:26;7.50;;;3.90;;
40591;SDS011;26301;42.832;23.918;2023-04-24T06:49:53;7.07;;;5.53;;
40591;SDS011;26301;42.832;23.918;2023-04-24T06:52:20;9.25;;;6.93;;
40591;SDS011;26301;42.832;23.918;2023-04-24T06:54:45;7.25;;;4.78;;
40591;SDS011;26301;42.832;23.918;2023-04-24T06:57:12;8.13;;;3.70;;
40591;SDS011;26301;42.832;23.918;2023-04-24T06:59:39;11.48;;;5.75;;
40591;SDS011;26301;42.832;23.918;2023-04-24T07:02:06;7.55;;;3.70;;
40591;SDS011;26301;42.832;23.918;2023-04-24T07:04:32;4.57;;;3.50;;
40591;SDS011;26301;42.832;23.918;2023-04-24T07:06:59;13.20;;;7.95;;
40591;SDS011;26301;42.832;23.918;2023-04-24T07:09:26;13.20;;;9.32;;
40591;SDS011;26301;42.832;23.918;2023-04-24T07:11:52;25.27;;;16.90;;
40591;SDS011;26301;42.832;23.918;2023-04-24T07:14:19;10.90;;;6.28;;
40591;SDS011;26301;42.832;23.918;2023-04-24T07:16:46;15.77;;;9.95;;
40591;SDS011;26301;42.832;23.918;2023-04-24T07:19:14;5.95;;;3.70;;
40591;SDS011;26301;42.832;23.918;2023-04-24T07:21:42;28.35;;;19.83;;
40591;SDS011;26301;42.832;23.918;2023-04-24T07:24:10;12.25;;;9.00;;
40591;SDS011;26301;42.832;23.918;2023-04-24T07:26:38;8.35;;;4.53;;
40591;SDS011;26301;42.832;23.918;2023-04-24T07:29:05;8.50;;;3.60;;
40591;SDS011;26301;42.832;23.918;2023-04-24T07:31:33;7.63;;;4.13;;
40591;SDS011;26301;42.832;23.918;2023-04-24T07:33:59;7.80;;;5.70;;
40591;SDS011;26301;42.832;23.918;2023-04-24T07:36:25;4.85;;;3.67;;
40591;SDS011;26301;42.832;23.918;2023-04-24T07:38:53;4.40;;;3.08;;
40591;SDS011;26301;42.832;23.918;2023-04-24T07:41:20;9.43;;;3.33;;
40591;SDS011;26301;42.832;23.918;2023-04-24T07:43:46;7.75;;;3.83;;
40591;SDS011;26301;42.832;23.918;2023-04-24T07:46:12;7.90;;;3.55;;
40591;SDS011;26301;42.832;23.918;2023-04-24T07:48:38;7.53;;;4.30;;
40591;SDS011;26301;42.832;23.918;2023-04-24T07:51:05;8.75;;;3.95;;
40591;SDS011;26301;42.832;23.918;2023-04-24T07:53:31;6.82;;;3.50;;
40591;SDS011;26301;42.832;23.918;2023-04-24T07:55:58;5.43;;;3.00;;
40591;SDS011;26301;42.832;23.918;2023-04-24T07:58:24;4.90;;;3.40;;
40591;SDS011;26301;42.832;23.918;2023-04-24T08:00:51;7.72;;;3.20;;
40591;SDS011;26301;42.832;23.918;2023-04-24T08:03:18;4.75;;;3.00;;
40591;SDS011;26301;42.832;23.918;2023-04-24T08:05:45;4.93;;;3.10;;
40591;SDS011;26301;42.832;23.918;2023-04-24T08:08:12;11.75;;;5.85;;
40591;SDS011;26301;42.832;23.918;2023-04-24T08:10:39;8.82;;;3.80;;
40591;SDS011;26301;42.832;23.918;2023-04-24T08:13:06;11.45;;;4.35;;
40591;SDS011;26301;42.832;23.918;2023-04-24T08:15:32;8.02;;;3.67;;
40591;SDS011;26301;42.832;23.918;2023-04-24T08:17:58;8.32;;;3.30;;
40591;SDS011;26301;42.832;23.918;2023-04-24T08:20:24;4.97;;;3.30;;
40591;SDS011;26301;42.832;23.918;2023-04-24T08:22:50;4.32;;;2.70;;
40591;SDS011;26301;42.832;23.918;2023-04-24T08:25:16;5.05;;;3.20;;
40591;SDS011;26301;42.832;23.918;2023-04-24T08:27:44;5.40;;;3.40;;
40591;SDS011;26301;42.832;23.918;2023-04-24T08:30:10;9.55;;;3.25;;
40591;SDS011;26301;42.832;23.918;2023-04-24T08:32:36;4.30;;;3.20;;
40591;SDS011;26301;42.832;23.918;2023-04-24T08:35:02;5.15;;;3.15;;
40591;SDS011;26301;42.832;23.918;2023-04-24T08:37:29;7.32;;;3.30;;
40591;SDS011;26301;42.832;23.918;2023-04-24T08:39:56;5.80;;;3.13;;
40591;SDS011;26301;42.832;23.918;2023-04-24T08:42:22;5.50;;;3.22;;
40591;SDS011;26301;42.832;23.918;2023-04-24T08:44:49;5.28;;;2.92;;
40591;SDS011;26301;42.832;23.918;2023-04-24T08:47:15;5.50;;;3.17;;
40591;SDS011;26301;42.832;23.918;2023-04-24T08:49:41;6.55;;;3.60;;
40591;SDS011;26301;42.832;23.918;2023-04-24T08:52:10;3.78;;;2.95;;
40591;SDS011;26301;42.832;23.918;2023-04-24T08:54:38;7.85;;;5.32;;
40591;SDS011;26301;42.832;23.918;2023-04-24T08:57:08;5.97;;;3.40;;
40591;SDS011;26301;42.832;23.918;2023-04-24T08:59:36;6.50;;;3.15;;
40591;SDS011;26301;42.832;23.918;2023-04-24T09:02:05;6.10;;;2.88;;
40591;SDS011;26301;42.832;23.918;2023-04-24T09:04:37;7.40;;;4.55;;
40591;SDS011;26301;42.832;23.918;2023-04-24T09:07:06;6.82;;;4.55;;
40591;SDS011;26301;42.832;23.918;2023-04-24T09:09:33;6.72;;;4.50;;
40591;SDS011;26301;42.832;23.918;2023-04-24T09:12:01;8.10;;;4.00;;
40591;SDS011;26301;42.832;23.918;2023-04-24T09:14:29;4.35;;;3.20;;
40591;SDS011;26301;42.832;23.918;2023-04-24T09:16:57;9.50;;;5.45;;
40591;SDS011;26301;42.832;23.918;2023-04-24T09:19:23;7.50;;;4.88;;
40591;SDS011;26301;42.832;23.918;2023-04-24T09:21:50;7.78;;;3.55;;
40591;SDS011;26301;42.832;23.918;2023-04-24T09:24:20;5.30;;;3.70;;
40591;SDS011;26301;42.832;23.918;2023-04-24T09:26:56;8.95;;;3.22;;
40591;SDS011;26301;42.832;23.918;2023-04-24T09:29:23;5.47;;;3.10;;
40591;SDS011;26301;42.832;23.918;2023-04-24T09:31:50;4.97;;;2.80;;
40591;SDS011;26301;42.832;23.918;2023-04-24T09:34:20;4.28;;;2.60;;
40591;SDS011;26301;42.832;23.918;2023-04-24T09:36:51;4.10;;;2.65;;
40591;SDS011;26301;42.832;23.918;2023-04-24T09:39:18;8.60;;;2.92;;
40591;SDS011;26301;42.832;23.918;2023-04-24T09:41:54;4.88;;;2.90;;
40591;SDS011;26301;42.832;23.918;2023-04-24T09:44:26;3.72;;;2.90;;
40591;SDS011;26301;42.832;23.918;2023-04-24T09:46:59;6.72;;;3.22;;
40591;SDS011;26301;42.832;23.918;2023-04-24T09:49:26;6.07;;;3.03;;
40591;SDS011;26301;42.832;23.918;2023-04-24T09:54:32;9.23;;;3.10;;
40591;SDS011;26301;42.832;23.918;2023-04-24T09:56:59;5.38;;;2.95;;
40591;SDS011;26301;42.832;23.918;2023-04-24T09:59:26;6.38;;;2.75;;
40591;SDS011;26301;42.832;23.918;2023-04-24T10:01:52;5.38;;;3.40;;
40591;SDS011;26301;42.832;23.918;2023-04-24T10:04:25;6.85;;;2.90;;
40591;SDS011;26301;42.832;23.918;2023-04-24T10:06:54;4.72;;;2.72;;
40591;SDS011;26301;42.832;23.918;2023-04-24T10:09:22;7.45;;;3.17;;
40591;SDS011;26301;42.832;23.918;2023-04-24T10:11:51;3.85;;;2.33;;
40591;SDS011;26301;42.832;23.918;2023-04-24T10:14:23;5.47;;;2.90;;
40591;SDS011;26301;42.832;23.918;2023-04-24T10:16:52;5.80;;;2.65;;
40591;SDS011;26301;42.832;23.918;2023-04-24T10:19:20;4.32;;;2.35;;
40591;SDS011;26301;42.832;23.918;2023-04-24T10:21:46;7.07;;;2.72;;
40591;SDS011;26301;42.832;23.918;2023-04-24T10:24:13;3.97;;;2.75;;
40591;SDS011;26301;42.832;23.918;2023-04-24T10:26:42;5.60;;;2.80;;
40591;SDS011;26301;42.832;23.918;2023-04-24T10:29:12;7.25;;;2.28;;
40591;SDS011;26301;42.832;23.918;2023-04-24T10:31:42;8.07;;;2.80;;
40591;SDS011;26301;42.832;23.918;2023-04-24T10:34:10;5.00;;;2.70;;
40591;SDS011;26301;42.832;23.918;2023-04-24T10:36:40;5.00;;;3.03;;
40591;SDS011;26301;42.832;23.918;2023-04-24T10:39:11;5.88;;;2.63;;
40591;SDS011;26301;42.832;23.918;2023-04-24T10:41:42;6.57;;;2.95;;
40591;SDS011;26301;42.832;23.918;2023-04-24T10:44:10;6.57;;;3.03;;
40591;SDS011;26301;42.832;23.918;2023-04-24T10:46:39;5.20;;;2.83;;
40591;SDS011;26301;42.832;23.918;2023-04-24T10:49:10;4.50;;;2.83;;
40591;SDS011;26301;42.832;23.918;2023-04-24T10:59:46;6.20;;;3.00;;
40591;SDS011;26301;42.832;23.918;2023-04-24T11:02:14;6.65;;;3.60;;
40591;SDS011;26301;42.832;23.918;2023-04-24T11:04:43;4.47;;;2.88;;
40591;SDS011;26301;42.832;23.918;2023-04-24T11:07:12;4.45;;;3.03;;
40591;SDS011;26301;42.832;23.918;2023-04-24T11:09:38;5.60;;;2.70;;
40591;SDS011;26301;42.832;23.918;2023-04-24T11:12:09;5.88;;;2.95;;
40591;SDS011;26301;42.832;23.918;2023-04-24T11:17:37;6.07;;;3.05;;
40591;SDS011;26301;42.832;23.918;2023-04-24T11:20:09;6.20;;;3.17;;
40591;SDS011;26301;42.832;23.918;2023-04-24T11:22:37;7.38;;;2.72;;
40591;SDS011;26301;42.832;23.918;2023-04-24T11:25:08;6.55;;;2.90;;
40591;SDS011;26301;42.832;23.918;2023-04-24T11:27:43;5.72;;;2.65;;
40591;SDS011;26301;42.832;23.918;2023-04-24T11:30:11;5.97;;;2.78;;
40591;SDS011;26301;42.832;23.918;2023-04-24T11:32:42;5.80;;;2.92;;
40591;SDS011;26301;42.832;23.918;2023-04-24T11:35:18;5.10;;;2.60;;
40591;SDS011;26301;42.832;23.918;2023-04-24T11:37:50;6.13;;;2.92;;
40591;SDS011;26301;42.832;23.918;2023-04-24T11:40:20;3.42;;;2.33;;
40591;SDS011;26301;42.832;23.918;2023-04-24T11:42:53;3.70;;;2.70;;
40591;SDS011;26301;42.832;23.918;2023-04-24T11:45:24;4.10;;;2.50;;
40591;SDS011;26301;42.832;23.918;2023-04-24T11:47:52;4.53;;;3.13;;
40591;SDS011;26301;42.832;23.918;2023-04-24T11:50:21;4.82;;;2.30;;
40591;SDS011;26301;42.832;23.918;2023-04-24T11:52:50;8.20;;;3.47;;
40591;SDS011;26301;42.832;23.918;2023-04-24T11:57:48;8.40;;;2.58;;
40591;SDS011;26301;42.832;23.918;2023-04-24T12:00:16;7.22;;;2.60;;
40591;SDS011;26301;42.832;23.918;2023-04-24T12:02:47;4.50;;;2.40;;
40591;SDS011;26301;42.832;23.918;2023-04-24T12:05:24;6.15;;;2.40;;
40591;SDS011;26301;42.832;23.918;2023-04-24T12:07:52;4.20;;;2.20;;
40591;SDS011;26301;42.832;23.918;2023-04-24T12:10:22;4.30;;;2.70;;
40591;SDS011;26301;42.832;23.918;2023-04-24T12:12:50;6.83;;;2.77;;
40591;SDS011;26301;42.832;23.918;2023-04-24T12:15:17;3.85;;;2.80;;
40591;SDS011;26301;42.832;23.918;2023-04-24T12:17:45;6.13;;;2.60;;
40591;SDS011;26301;42.832;23.918;2023-04-24T12:20:12;4.68;;;2.70;;
40591;SDS011;26301;42.832;23.918;2023-04-24T12:22:50;9.38;;;3.15;;
40591;SDS011;26301;42.832;23.918;2023-04-24T12:25:20;9.68;;;3.17;;
40591;SDS011;26301;42.832;23.918;2023-04-24T12:27:52;5.85;;;3.38;;
40591;SDS011;26301;42.832;23.918;2023-04-24T12:30:20;10.05;;;4.35;;
40591;SDS011;26301;42.832;23.918;2023-04-24T12:32:47;7.28;;;4.03;;
40591;SDS011;26301;42.832;23.918;2023-04-24T12:35:21;5.97;;;4.03;;
40591;SDS011;26301;42.832;23.918;2023-04-24T12:37:49;5.07;;;4.10;;
40591;SDS011;26301;42.832;23.918;2023-04-24T12:40:17;6.68;;;4.50;;
40591;SDS011;26301;42.832;23.918;2023-04-24T12:42:48;9.52;;;4.88;;
40591;SDS011;26301;42.832;23.918;2023-04-24T12:45:16;7.68;;;4.55;;
40591;SDS011;26301;42.832;23.918;2023-04-24T12:47:43;5.55;;;4.93;;
40591;SDS011;26301;42.832;23.918;2023-04-24T12:50:11;5.85;;;4.60;;
40591;SDS011;26301;42.832;23.918;2023-04-24T12:52:40;5.43;;;4.60;;
40591;SDS011;26301;42.832;23.918;2023-04-24T12:55:07;9.27;;;5.07;;
40591;SDS011;26301;42.832;23.918;2023-04-24T12:57:36;7.40;;;5.00;;
40591;SDS011;26301;42.832;23.918;2023-04-24T13:00:04;6.65;;;4.57;;
40591;SDS011;26301;42.832;23.918;2023-04-24T13:02:32;6.32;;;4.20;;
40591;SDS011;26301;42.832;23.918;2023-04-24T13:04:59;7.20;;;4.40;;
40591;SDS011;26301;42.832;23.918;2023-04-24T13:07:26;5.30;;;3.45;;
40591;SDS011;26301;42.832;23.918;2023-04-24T13:09:53;5.40;;;3.60;;
40591;SDS011;26301;42.832;23.918;2023-04-24T13:12:20;5.72;;;3.22;;
40591;SDS011;26301;42.832;23.918;2023-04-24T13:14:49;3.95;;;3.08;;
40591;SDS011;26301;42.832;23.918;2023-04-24T13:17:14;4.93;;;3.10;;
40591;SDS011;26301;42.832;23.918;2023-04-24T13:19:42;4.18;;;2.90;;
40591;SDS011;26301;42.832;23.918;2023-04-24T13:22:10;6.05;;;3.15;;
40591;SDS011;26301;42.832;23.918;2023-04-24T13:24:37;4.97;;;2.97;;
40591;SDS011;26301;42.832;23.918;2023-04-24T13:27:05;6.47;;;3.72;;
40591;SDS011;26301;42.832;23.918;2023-04-24T13:29:32;11.35;;;3.70;;
40591;SDS011;26301;42.832;23.918;2023-04-24T13:31:58;3.40;;;2.40;;
40591;SDS011;26301;42.832;23.918;2023-04-24T13:34:25;4.55;;;2.80;;
40591;SDS011;26301;42.832;23.918;2023-04-24T13:36:55;2.17;;;1.88;;
40591;SDS011;26301;42.832;23.918;2023-04-24T13:39:23;3.75;;;2.65;;
40591;SDS011;26301;42.832;23.918;2023-04-24T13:41:51;5.07;;;2.40;;
40591;SDS011;26301;42.832;23.918;2023-04-24T13:44:18;3.30;;;2.67;;
40591;SDS011;26301;42.832;23.918;2023-04-24T13:46:46;3.92;;;2.63;;
40591;SDS011;26301;42.832;23.918;2023-04-24T13:49:14;6.25;;;2.60;;
40591;SDS011;26301;42.832;23.918;2023-04-24T13:51:42;4.25;;;3.00;;
40591;SDS011;26301;42.832;23.918;2023-04-24T13:54:08;9.50;;;3.25;;
40591;SDS011;26301;42.832;23.918;2023-04-24T13:56:36;8.02;;;3.85;;
40591;SDS011;26301;42.832;23.918;2023-04-24T13:59:02;14.65;;;5.72;;
40591;SDS011;26301;42.832;23.918;2023-04-24T14:01:29;8.18;;;5.18;;
40591;SDS011;26301;42.832;23.918;2023-04-24T14:03:55;7.20;;;3.75;;
40591;SDS011;26301;42.832;23.918;2023-04-24T14:06:22;9.65;;;5.70;;
40591;SDS011;26301;42.832;23.918;2023-04-24T14:08:48;7.47;;;5.82;;
40591;SDS011;26301;42.832;23.918;2023-04-24T14:11:15;7.20;;;4.40;;
40591;SDS011;26301;42.832;23.918;2023-04-24T14:13:42;6.15;;;5.38;;
40591;SDS011;26301;42.832;23.918;2023-04-24T14:16:09;7.07;;;4.88;;
40591;SDS011;26301;42.832;23.918;2023-04-24T14:18:36;6.25;;;4.97;;
40591;SDS011;26301;42.832;23.918;2023-04-24T14:21:03;4.88;;;4.00;;
40591;SDS011;26301;42.832;23.918;2023-04-24T14:23:31;5.20;;;4.53;;
40591;SDS011;26301;42.832;23.918;2023-04-24T14:25:57;10.02;;;5.90;;
40591;SDS011;26301;42.832;23.918;2023-04-24T14:28:25;7.88;;;5.55;;
40591;SDS011;26301;42.832;23.918;2023-04-24T14:30:51;7.85;;;4.50;;
40591;SDS011;26301;42.832;23.918;2023-04-24T14:33:18;9.48;;;5.55;;
40591;SDS011;26301;42.832;23.918;2023-04-24T14:35:44;11.50;;;5.53;;
40591;SDS011;26301;42.832;23.918;2023-04-24T14:38:11;9.23;;;4.80;;
40591;SDS011;26301;42.832;23.918;2023-04-24T14:40:37;5.82;;;4.78;;
40591;SDS011;26301;42.832;23.918;2023-04-24T14:43:05;9.00;;;5.38;;
40591;SDS011;26301;42.832;23.918;2023-04-24T14:45:32;6.60;;;5.13;;